Santarem の空港の天気 - METARとTAF

サンタレン/マエストロ・ウィウソン・フォンセカ空港 ( SBSN / STM ) - ブラジル パラー州、Santarem
飛行場実況気象(Metar)
観測時間12/01 19:00 AMT (12/01 23:00 UTC)
風向・風速南東 2m/s
視程10km以上
天気現象周辺で雷
少しの雲 雲底高度 610m
気温27℃
湿度84%
気圧1008hPa
METARSBSN 012300Z 13004KT 9999 VCTS FEW020CB 27/24 Q1008
過去の天気等 Google飛行場航空写真 Wunderground天気予報

過去48時間のMETAR

飛行場予報(TAF)
発表時間: 12/01 17:00 AMT (12/01 21:00 UTC)
予報対象時間: 1日20時 AMT ~ 2日20時 AMT
風向・風速東南東 3m/s
視程10km以上
少しの雲 雲底高度 520m
1日20時 AMT から 確率 30% で
天気現象
少しの雲 雲底高度 460m
少しの積乱雲 雲底高度 610m
2日3時 AMT ~ 2日5時 AMT に徐々に
風向・風速南 3m/s
2日10時 AMT ~ 2日12時 AMT に徐々に
風向・風速東南東 3m/s
全天の4割程度の雲 雲底高度 610m
少しの塔状積雲 雲底高度 1070m
TAF SBSN 012100Z 0200/0224 12005KT 9999 FEW017 TX31/0217Z TN28/0223Z
PROB30 0200/0206 TS FEW015 FEW020CB
BECMG 0207/0209 18005KT
BECMG 0214/0216 12005KT SCT020 FEW035TCU RMK PGY